createdAt,value
2017-09-23T00:00:02.483Z,930.63
2017-09-23T00:00:16.572Z,930.62
2017-09-23T00:00:29.713Z,930.62
2017-09-23T00:00:42.833Z,930.65
2017-09-23T00:00:55.341Z,930.63
2017-09-23T00:01:10.499Z,930.61
2017-09-23T00:01:24.309Z,930.64
2017-09-23T00:01:38.220Z,930.63
2017-09-23T00:01:51.871Z,930.58
2017-09-23T00:02:05.907Z,930.59
2017-09-23T00:02:20.248Z,930.64
2017-09-23T00:02:34.528Z,930.61
2017-09-23T00:02:48.402Z,930.62
2017-09-23T00:03:02.490Z,930.62
2017-09-23T00:03:16.608Z,930.63
2017-09-23T00:03:30.833Z,930.62
2017-09-23T00:03:44.260Z,930.59
2017-09-23T00:03:57.789Z,930.6
2017-09-23T00:04:11.662Z,930.63
2017-09-23T00:04:25.351Z,930.64
2017-09-23T00:04:39.108Z,930.63
2017-09-23T00:04:53.804Z,930.66
2017-09-23T00:05:08.305Z,930.61
2017-09-23T00:05:22.606Z,930.63
2017-09-23T00:05:36.301Z,930.64
2017-09-23T00:05:50.567Z,930.63
2017-09-23T00:06:04.245Z,930.63
2017-09-23T00:06:18.290Z,930.64
2017-09-23T00:06:31.527Z,930.65
2017-09-23T00:06:44.886Z,930.62
2017-09-23T00:06:58.955Z,930.63
2017-09-23T00:07:13.196Z,930.58
2017-09-23T00:07:27.272Z,930.64
2017-09-23T00:07:41.156Z,930.6
2017-09-23T00:07:54.600Z,930.61
2017-09-23T00:08:08.294Z,930.63
2017-09-23T00:08:22.560Z,930.62
2017-09-23T00:08:37.233Z,930.59
2017-09-23T00:08:51.153Z,930.62
2017-09-23T00:09:03.656Z,930.57
2017-09-23T00:09:17.747Z,930.59
2017-09-23T00:09:31.636Z,930.59
2017-09-23T00:09:45.655Z,930.59
2017-09-23T00:09:59.914Z,930.57
2017-09-23T00:10:13.414Z,930.6
2017-09-23T00:10:26.854Z,930.56
2017-09-23T00:10:41.140Z,930.54
2017-09-23T00:10:55.072Z,930.51
2017-09-23T00:11:07.992Z,930.5
2017-09-23T00:11:21.552Z,930.53
2017-09-23T00:11:36.086Z,930.52
2017-09-23T00:11:49.570Z,930.48
2017-09-23T00:12:03.090Z,930.46
2017-09-23T00:12:16.734Z,930.49
2017-09-23T00:12:30.777Z,930.51
2017-09-23T00:12:44.796Z,930.45
2017-09-23T00:12:58.468Z,930.48
2017-09-23T00:13:12.284Z,930.47
2017-09-23T00:13:26.044Z,930.45
2017-09-23T00:13:40.133Z,930.47
2017-09-23T00:13:53.582Z,930.47
2017-09-23T00:14:07.292Z,930.46
2017-09-23T00:14:20.939Z,930.46
2017-09-23T00:14:34.145Z,930.46
2017-09-23T00:14:47.867Z,930.43
2017-09-23T00:15:01.800Z,930.46
2017-09-23T00:15:15.453Z,930.46
2017-09-23T00:15:29.711Z,930.44
2017-09-23T00:15:44.157Z,930.45
2017-09-23T00:15:57.977Z,930.45
2017-09-23T00:16:11.461Z,930.45
2017-09-23T00:16:25.771Z,930.42
2017-09-23T00:16:39.199Z,930.46
2017-09-23T00:16:53.451Z,930.48
2017-09-23T00:17:07.679Z,930.49
2017-09-23T00:17:21.331Z,930.5
2017-09-23T00:17:34.221Z,930.5
2017-09-23T00:17:48.224Z,930.49
2017-09-23T00:18:01.096Z,930.51
2017-09-23T00:18:15.395Z,930.5
2017-09-23T00:18:29.352Z,930.51
2017-09-23T00:18:42.832Z,930.48
2017-09-23T00:18:56.386Z,930.47
2017-09-23T00:19:10.040Z,930.47
2017-09-23T00:19:24.335Z,930.46
2017-09-23T00:19:37.310Z,930.47
2017-09-23T00:19:50.556Z,930.51
2017-09-23T00:20:04.037Z,930.52
2017-09-23T00:20:17.121Z,930.51
2017-09-23T00:20:31.045Z,930.5
2017-09-23T00:20:43.358Z,930.52
2017-09-23T00:20:56.457Z,930.55
2017-09-23T00:21:10.921Z,930.51
2017-09-23T00:21:25.190Z,930.53
2017-09-23T00:21:39.229Z,930.52
2017-09-23T00:21:52.346Z,930.51
2017-09-23T00:22:06.256Z,930.53
2017-09-23T00:22:19.767Z,930.52
2017-09-23T00:22:32.945Z,930.53
2017-09-23T00:22:47.066Z,930.52
2017-09-23T00:23:00.147Z,930.53
2017-09-23T00:23:13.830Z,930.52
2017-09-23T00:23:28.081Z,930.52
2017-09-23T00:23:42.397Z,930.51
2017-09-23T00:23:56.246Z,930.51
2017-09-23T00:24:10.301Z,930.5
2017-09-23T00:24:24.564Z,930.48
2017-09-23T00:24:38.619Z,930.54
2017-09-23T00:24:52.301Z,930.5
2017-09-23T00:25:06.380Z,930.51
2017-09-23T00:25:20.440Z,930.48
2017-09-23T00:25:33.949Z,930.48
2017-09-23T00:25:47.659Z,930.5
2017-09-23T00:26:01.304Z,930.54
2017-09-23T00:26:15.782Z,930.5
2017-09-23T00:26:30.148Z,930.5
2017-09-23T00:26:43.276Z,930.49
2017-09-23T00:26:57.736Z,930.48
2017-09-23T00:27:11.218Z,930.48
2017-09-23T00:27:24.867Z,930.47
2017-09-23T00:27:39.368Z,930.5
2017-09-23T00:27:53.334Z,930.52
2017-09-23T00:28:06.854Z,930.53
2017-09-23T00:28:20.750Z,930.51
2017-09-23T00:28:34.781Z,930.48
2017-09-23T00:28:49.161Z,930.52
2017-09-23T00:29:01.741Z,930.52
2017-09-23T00:29:15.245Z,930.54
2017-09-23T00:29:28.280Z,930.48
2017-09-23T00:29:42.340Z,930.52
2017-09-23T00:29:56.674Z,930.52
2017-09-23T00:30:10.193Z,930.51
2017-09-23T00:30:24.247Z,930.53
2017-09-23T00:30:38.488Z,930.52
2017-09-23T00:30:51.474Z,930.55
2017-09-23T00:31:05.526Z,930.53
2017-09-23T00:31:19.976Z,930.53
2017-09-23T00:31:33.249Z,930.54
2017-09-23T00:31:46.755Z,930.56
2017-09-23T00:32:00.808Z,930.56
2017-09-23T00:32:13.237Z,930.52
2017-09-23T00:32:27.714Z,930.53
2017-09-23T00:32:41.515Z,930.54
2017-09-23T00:32:55.027Z,930.52
2017-09-23T00:33:09.026Z,930.52
2017-09-23T00:33:23.371Z,930.51
2017-09-23T00:33:36.776Z,930.54
2017-09-23T00:33:49.718Z,930.52
2017-09-23T00:34:03.669Z,930.53
2017-09-23T00:34:16.814Z,930.53
2017-09-23T00:34:31.030Z,930.52
2017-09-23T00:34:44.512Z,930.52
2017-09-23T00:34:58.106Z,930.54
2017-09-23T00:35:12.160Z,930.49
2017-09-23T00:35:26.454Z,930.51
2017-09-23T00:35:39.282Z,930.52
2017-09-23T00:35:53.390Z,930.52
2017-09-23T00:36:07.814Z,930.52
2017-09-23T00:36:20.239Z,930.54
2017-09-23T00:36:33.718Z,930.54
2017-09-23T00:36:47.558Z,930.55
2017-09-23T00:37:01.645Z,930.53
2017-09-23T00:37:15.401Z,930.54
2017-09-23T00:37:29.675Z,930.53
2017-09-23T00:37:43.962Z,930.53
2017-09-23T00:37:58.025Z,930.55
2017-09-23T00:38:11.717Z,930.52
2017-09-23T00:38:25.829Z,930.52
2017-09-23T00:38:39.281Z,930.55
2017-09-23T00:38:51.595Z,930.54
2017-09-23T00:39:05.607Z,930.55
2017-09-23T00:39:19.647Z,930.55
2017-09-23T00:39:33.731Z,930.56
2017-09-23T00:39:47.441Z,930.56
2017-09-23T00:40:00.899Z,930.56
2017-09-23T00:40:13.984Z,930.58
2017-09-23T00:40:28.248Z,930.57
2017-09-23T00:40:41.778Z,930.59
2017-09-23T00:40:55.196Z,930.58
2017-09-23T00:41:09.253Z,930.57
2017-09-23T00:41:23.725Z,930.57
2017-09-23T00:41:37.473Z,930.58
2017-09-23T00:41:51.628Z,930.6
2017-09-23T00:42:04.783Z,930.57
2017-09-23T00:42:18.325Z,930.58
2017-09-23T00:42:32.422Z,930.6
2017-09-23T00:42:45.945Z,930.57
2017-09-23T00:42:59.154Z,930.57
2017-09-23T00:43:13.301Z,930.56
2017-09-23T00:43:26.793Z,930.59
2017-09-23T00:43:40.587Z,930.56
2017-09-23T00:43:54.592Z,930.58
2017-09-23T00:44:09.171Z,930.56
2017-09-23T00:44:22.916Z,930.58
2017-09-23T00:44:37.005Z,930.61
2017-09-23T00:44:51.124Z,930.55
2017-09-23T00:45:04.742Z,930.58
2017-09-23T00:45:18.862Z,930.58
2017-09-23T00:45:32.697Z,930.59
2017-09-23T00:45:46.438Z,930.56
2017-09-23T00:45:59.893Z,930.56
2017-09-23T00:46:14.450Z,930.58
2017-09-23T00:46:29.121Z,930.55
2017-09-23T00:46:43.284Z,930.55
2017-09-23T00:46:57.422Z,930.55
2017-09-23T00:47:11.328Z,930.54
2017-09-23T00:47:24.928Z,930.55
2017-09-23T00:47:38.881Z,930.57
2017-09-23T00:47:52.523Z,930.56
2017-09-23T00:48:05.992Z,930.54
2017-09-23T00:48:19.485Z,930.57
2017-09-23T00:48:33.811Z,930.55
2017-09-23T00:48:48.081Z,930.53
2017-09-23T00:49:02.523Z,930.53
2017-09-23T00:49:16.598Z,930.56
2017-09-23T00:49:30.309Z,930.53
2017-09-23T00:49:43.622Z,930.53
2017-09-23T00:49:57.378Z,930.5
2017-09-23T00:50:10.443Z,930.47
2017-09-23T00:50:24.525Z,930.48
2017-09-23T00:50:38.007Z,930.5
2017-09-23T00:50:51.482Z,930.52
2017-09-23T00:51:05.195Z,930.48
2017-09-23T00:51:19.351Z,930.47
2017-09-23T00:51:33.615Z,930.5
2017-09-23T00:51:47.950Z,930.45
2017-09-23T00:52:01.845Z,930.5
2017-09-23T00:52:15.745Z,930.45
2017-09-23T00:52:30.210Z,930.43
2017-09-23T00:52:43.134Z,930.45
2017-09-23T00:52:56.840Z,930.45
2017-09-23T00:53:10.315Z,930.42
2017-09-23T00:53:23.831Z,930.45
2017-09-23T00:53:37.858Z,930.44
2017-09-23T00:53:51.088Z,930.43
2017-09-23T00:54:04.424Z,930.4
2017-09-23T00:54:18.745Z,930.43
2017-09-23T00:54:32.277Z,930.42
2017-09-23T00:54:45.876Z,930.42
2017-09-23T00:55:00.094Z,930.4
2017-09-23T00:55:13.748Z,930.4
2017-09-23T00:55:27.365Z,930.41
2017-09-23T00:55:40.888Z,930.41
2017-09-23T00:55:54.757Z,930.43
2017-09-23T00:56:08.719Z,930.44
2017-09-23T00:56:22.347Z,930.42
2017-09-23T00:56:36.756Z,930.41
2017-09-23T00:56:50.653Z,930.42
2017-09-23T00:57:05.148Z,930.41
2017-09-23T00:57:19.847Z,930.42
2017-09-23T00:57:33.808Z,930.44
2017-09-23T00:57:48.306Z,930.42
2017-09-23T00:58:01.775Z,930.44
2017-09-23T00:58:16.188Z,930.46
2017-09-23T00:58:30.041Z,930.46
2017-09-23T00:58:43.578Z,930.45
2017-09-23T00:58:57.666Z,930.46
2017-09-23T00:59:11.999Z,930.44
2017-09-23T00:59:25.994Z,930.45
2017-09-23T00:59:39.514Z,930.48
2017-09-23T00:59:52.714Z,930.44
2017-09-23T01:00:06.923Z,930.44
2017-09-23T01:00:20.678Z,930.47
2017-09-23T01:00:34.855Z,930.45
2017-09-23T01:00:48.592Z,930.45
2017-09-23T01:01:01.806Z,930.44
2017-09-23T01:01:16.738Z,930.49
2017-09-23T01:01:30.983Z,930.47
2017-09-23T01:01:45.121Z,930.47
2017-09-23T01:01:59.480Z,930.43
2017-09-23T01:02:13.761Z,930.47
2017-09-23T01:02:27.246Z,930.48
2017-09-23T01:02:40.914Z,930.49
2017-09-23T01:02:54.993Z,930.46
2017-09-23T01:03:08.643Z,930.5
2017-09-23T01:03:22.127Z,930.5
2017-09-23T01:03:36.540Z,930.47
2017-09-23T01:03:51.085Z,930.48
2017-09-23T01:04:03.999Z,930.48
2017-09-23T01:04:17.747Z,930.47
2017-09-23T01:04:32.095Z,930.5
2017-09-23T01:04:45.597Z,930.47
2017-09-23T01:05:00.104Z,930.52
2017-09-23T01:05:14.190Z,930.47
2017-09-23T01:05:27.725Z,930.46
2017-09-23T01:05:42.308Z,930.47
2017-09-23T01:05:56.045Z,930.48
2017-09-23T01:06:08.963Z,930.48
2017-09-23T01:06:22.559Z,930.52
2017-09-23T01:06:36.647Z,930.45
2017-09-23T01:06:49.562Z,930.48
2017-09-23T01:07:03.654Z,930.47
2017-09-23T01:07:17.401Z,930.47
2017-09-23T01:07:30.510Z,930.44
2017-09-23T01:07:44.046Z,930.49
2017-09-23T01:07:56.991Z,930.51
2017-09-23T01:08:11.340Z,930.46
2017-09-23T01:08:25.621Z,930.46
2017-09-23T01:08:39.921Z,930.48
2017-09-23T01:08:54.010Z,930.48
2017-09-23T01:09:07.642Z,930.47
2017-09-23T01:09:21.181Z,930.47
2017-09-23T01:09:35.472Z,930.46
2017-09-23T01:09:49.157Z,930.44
2017-09-23T01:10:02.588Z,930.45
2017-09-23T01:10:16.120Z,930.45
2017-09-23T01:10:29.605Z,930.45
2017-09-23T01:10:43.390Z,930.49
2017-09-23T01:10:57.458Z,930.47
2017-09-23T01:11:10.874Z,930.46
2017-09-23T01:11:23.177Z,930.49
2017-09-23T01:11:37.736Z,930.48
2017-09-23T01:11:51.793Z,930.46
2017-09-23T01:12:06.055Z,930.46
2017-09-23T01:12:19.566Z,930.48
2017-09-23T01:12:33.309Z,930.46
2017-09-23T01:12:46.214Z,930.52
2017-09-23T01:13:00.213Z,930.47
2017-09-23T01:13:14.512Z,930.46
2017-09-23T01:13:28.183Z,930.46
2017-09-23T01:13:42.401Z,930.48
2017-09-23T01:13:56.402Z,930.51
2017-09-23T01:14:09.844Z,930.48
2017-09-23T01:14:23.892Z,930.5
2017-09-23T01:14:37.322Z,930.51
2017-09-23T01:14:51.041Z,930.52
2017-09-23T01:15:05.649Z,930.54
2017-09-23T01:15:19.715Z,930.49
2017-09-23T01:15:33.818Z,930.53
2017-09-23T01:15:46.753Z,930.51
2017-09-23T01:16:01.235Z,930.56
2017-09-23T01:16:14.710Z,930.54
2017-09-23T01:16:28.443Z,930.52
2017-09-23T01:16:42.031Z,930.53
2017-09-23T01:16:56.232Z,930.53
2017-09-23T01:17:10.280Z,930.52
2017-09-23T01:17:25.586Z,930.56
2017-09-23T01:17:39.106Z,930.56
2017-09-23T01:17:53.420Z,930.54
2017-09-23T01:18:07.159Z,930.53
2017-09-23T01:18:21.307Z,930.56
2017-09-23T01:18:35.594Z,930.54
2017-09-23T01:18:49.088Z,930.56
2017-09-23T01:19:02.740Z,930.53
2017-09-23T01:19:16.841Z,930.53
2017-09-23T01:19:30.867Z,930.56
2017-09-23T01:19:44.318Z,930.55
2017-09-23T01:19:58.403Z,930.55
2017-09-23T01:20:11.294Z,930.55
2017-09-23T01:20:25.135Z,930.56
2017-09-23T01:20:38.632Z,930.55
2017-09-23T01:20:52.631Z,930.55
2017-09-23T01:21:06.895Z,930.56
2017-09-23T01:21:19.818Z,930.57
2017-09-23T01:21:33.303Z,930.55
2017-09-23T01:21:47.233Z,930.55
2017-09-23T01:22:00.746Z,930.58
2017-09-23T01:22:13.599Z,930.54
2017-09-23T01:22:27.273Z,930.55
2017-09-23T01:22:41.206Z,930.56
2017-09-23T01:22:55.533Z,930.53
2017-09-23T01:23:09.005Z,930.56
2017-09-23T01:23:22.534Z,930.55
2017-09-23T01:23:36.613Z,930.54
2017-09-23T01:23:49.167Z,930.54
2017-09-23T01:24:02.644Z,930.58
2017-09-23T01:24:16.658Z,930.53
2017-09-23T01:24:30.178Z,930.56
2017-09-23T01:24:43.622Z,930.57
2017-09-23T01:24:57.667Z,930.56
2017-09-23T01:25:11.722Z,930.56
2017-09-23T01:25:25.242Z,930.57
2017-09-23T01:25:39.245Z,930.56
2017-09-23T01:25:52.778Z,930.58
2017-09-23T01:26:07.192Z,930.57
2017-09-23T01:26:20.661Z,930.63
2017-09-23T01:26:34.860Z,930.56
2017-09-23T01:26:49.073Z,930.57
2017-09-23T01:27:02.570Z,930.56
2017-09-23T01:27:14.923Z,930.56
2017-09-23T01:27:27.783Z,930.58
2017-09-23T01:27:41.766Z,930.56
2017-09-23T01:27:54.668Z,930.57
2017-09-23T01:28:07.573Z,930.58
2017-09-23T01:28:21.665Z,930.62
2017-09-23T01:28:34.559Z,930.59
2017-09-23T01:28:48.778Z,930.57
2017-09-23T01:29:03.001Z,930.55
2017-09-23T01:29:16.989Z,930.55
2017-09-23T01:29:31.038Z,930.55
2017-09-23T01:29:44.521Z,930.54
2017-09-23T01:29:58.612Z,930.54
2017-09-23T01:30:12.229Z,930.53
2017-09-23T01:30:25.913Z,930.54
2017-09-23T01:30:39.407Z,930.5
2017-09-23T01:30:52.880Z,930.51
2017-09-23T01:31:06.377Z,930.5
2017-09-23T01:31:20.623Z,930.53
2017-09-23T01:31:34.676Z,930.55
2017-09-23T01:31:48.523Z,930.53
2017-09-23T01:32:02.604Z,930.52
2017-09-23T01:32:16.252Z,930.47
2017-09-23T01:32:30.288Z,930.51
2017-09-23T01:32:44.709Z,930.5
2017-09-23T01:32:59.005Z,930.51
2017-09-23T01:33:13.073Z,930.52
2017-09-23T01:33:27.223Z,930.51
2017-09-23T01:33:40.889Z,930.47
2017-09-23T01:33:54.353Z,930.51
2017-09-23T01:34:08.157Z,930.48
2017-09-23T01:34:22.831Z,930.48
2017-09-23T01:34:36.969Z,930.48
2017-09-23T01:34:50.807Z,930.49
2017-09-23T01:35:04.405Z,930.48
2017-09-23T01:35:18.626Z,930.49
2017-09-23T01:35:32.190Z,930.53
2017-09-23T01:35:45.661Z,930.5
2017-09-23T01:35:59.929Z,930.52
2017-09-23T01:36:13.673Z,930.49
2017-09-23T01:36:26.533Z,930.48
2017-09-23T01:36:39.678Z,930.49
2017-09-23T01:36:53.390Z,930.54
2017-09-23T01:37:07.854Z,930.54
2017-09-23T01:37:22.171Z,930.49
2017-09-23T01:37:35.692Z,930.52
2017-09-23T01:37:49.242Z,930.51
2017-09-23T01:38:02.927Z,930.5
2017-09-23T01:38:16.903Z,930.52
2017-09-23T01:38:31.362Z,930.54
2017-09-23T01:38:45.903Z,930.54
2017-09-23T01:38:59.637Z,930.52
2017-09-23T01:39:13.726Z,930.52
2017-09-23T01:39:27.178Z,930.54
2017-09-23T01:39:40.746Z,930.53
2017-09-23T01:39:54.312Z,930.53
2017-09-23T01:40:08.065Z,930.52
2017-09-23T01:40:22.186Z,930.55
2017-09-23T01:40:35.811Z,930.55
2017-09-23T01:40:49.795Z,930.53
2017-09-23T01:41:04.267Z,930.55
2017-09-23T01:41:18.271Z,930.52
2017-09-23T01:41:31.252Z,930.54
2017-09-23T01:41:44.964Z,930.51
2017-09-23T01:41:58.957Z,930.57
2017-09-23T01:42:12.641Z,930.53
2017-09-23T01:42:26.940Z,930.53
2017-09-23T01:42:40.471Z,930.52
2017-09-23T01:42:54.011Z,930.54
2017-09-23T01:43:07.506Z,930.54
2017-09-23T01:43:20.973Z,930.58
2017-09-23T01:43:34.949Z,930.54
2017-09-23T01:43:48.953Z,930.53
2017-09-23T01:44:02.471Z,930.52
2017-09-23T01:44:16.294Z,930.54
2017-09-23T01:44:29.815Z,930.51
2017-09-23T01:44:44.081Z,930.52
2017-09-23T01:44:58.346Z,930.56
2017-09-23T01:45:10.702Z,930.56
2017-09-23T01:45:24.778Z,930.56
2017-09-23T01:45:38.534Z,930.54
2017-09-23T01:45:52.628Z,930.51
2017-09-23T01:46:06.646Z,930.5
2017-09-23T01:46:22.474Z,930.52
2017-09-23T01:46:36.498Z,930.5
2017-09-23T01:46:49.433Z,930.52
2017-09-23T01:47:03.947Z,930.51
2017-09-23T01:47:17.673Z,930.51
2017-09-23T01:47:30.616Z,930.5
2017-09-23T01:47:44.091Z,930.51
2017-09-23T01:47:57.581Z,930.49
2017-09-23T01:48:10.999Z,930.47
2017-09-23T01:48:24.641Z,930.48
2017-09-23T01:48:38.774Z,930.45
2017-09-23T01:48:52.859Z,930.48
2017-09-23T01:49:07.159Z,930.47
2017-09-23T01:49:21.050Z,930.46
2017-09-23T01:49:35.207Z,930.46
2017-09-23T01:49:48.187Z,930.46
2017-09-23T01:50:01.304Z,930.47
2017-09-23T01:50:14.192Z,930.48
2017-09-23T01:50:28.469Z,930.5
2017-09-23T01:50:41.963Z,930.48
2017-09-23T01:50:55.532Z,930.49
2017-09-23T01:51:09.180Z,930.47
2017-09-23T01:51:23.249Z,930.47
2017-09-23T01:51:36.909Z,930.45
2017-09-23T01:51:50.444Z,930.47
2017-09-23T01:52:03.354Z,930.49
2017-09-23T01:52:17.367Z,930.44
2017-09-23T01:52:31.659Z,930.44
2017-09-23T01:52:45.706Z,930.45
2017-09-23T01:52:59.807Z,930.49
2017-09-23T01:53:12.167Z,930.48
2017-09-23T01:53:25.567Z,930.47
2017-09-23T01:53:39.253Z,930.45
2017-09-23T01:53:53.391Z,930.48
2017-09-23T01:54:07.083Z,930.46
2017-09-23T01:54:20.552Z,930.45
2017-09-23T01:54:33.393Z,930.47
2017-09-23T01:54:46.956Z,930.5
2017-09-23T01:54:59.538Z,930.49
2017-09-23T01:55:13.639Z,930.47
2017-09-23T01:55:27.720Z,930.47
2017-09-23T01:55:41.791Z,930.46
2017-09-23T01:55:55.337Z,930.46
2017-09-23T01:56:09.249Z,930.5
2017-09-23T01:56:22.913Z,930.46
2017-09-23T01:56:37.066Z,930.47
2017-09-23T01:56:51.135Z,930.48
2017-09-23T01:57:05.266Z,930.46
2017-09-23T01:57:19.337Z,930.47
2017-09-23T01:57:32.903Z,930.46
2017-09-23T01:57:46.459Z,930.46
2017-09-23T01:58:00.517Z,930.48
2017-09-23T01:58:15.178Z,930.46
2017-09-23T01:58:29.277Z,930.47
2017-09-23T01:58:43.052Z,930.46
2017-09-23T01:58:56.990Z,930.45
2017-09-23T01:59:10.497Z,930.48
2017-09-23T01:59:24.249Z,930.48
2017-09-23T01:59:37.744Z,930.45
2017-09-23T01:59:50.704Z,930.46
2017-09-23T02:00:04.294Z,930.44
2017-09-23T02:00:17.888Z,930.47
2017-09-23T02:00:32.078Z,930.45
2017-09-23T02:00:45.787Z,930.45
2017-09-23T02:00:59.570Z,930.45
2017-09-23T02:01:13.176Z,930.48
2017-09-23T02:01:26.811Z,930.39
2017-09-23T02:01:41.000Z,930.44
2017-09-23T02:01:55.259Z,930.42
2017-09-23T02:02:09.495Z,930.44
2017-09-23T02:02:23.668Z,930.45
2017-09-23T02:02:37.406Z,930.43
2017-09-23T02:02:51.355Z,930.4
2017-09-23T02:03:05.471Z,930.44
2017-09-23T02:03:19.569Z,930.44
2017-09-23T02:03:32.758Z,930.43
2017-09-23T02:03:46.449Z,930.45
2017-09-23T02:04:00.496Z,930.46
2017-09-23T02:04:14.252Z,930.42
2017-09-23T02:04:27.745Z,930.44
2017-09-23T02:04:42.074Z,930.42
2017-09-23T02:04:55.584Z,930.39
2017-09-23T02:05:09.770Z,930.45
2017-09-23T02:05:22.637Z,930.46
2017-09-23T02:05:36.128Z,930.46
2017-09-23T02:05:50.187Z,930.47
2017-09-23T02:06:03.669Z,930.45
2017-09-23T02:06:16.787Z,930.46
2017-09-23T02:06:30.741Z,930.41
2017-09-23T02:06:44.293Z,930.42
2017-09-23T02:06:58.316Z,930.45
2017-09-23T02:07:12.610Z,930.42
2017-09-23T02:07:26.841Z,930.43
2017-09-23T02:07:42.226Z,930.44
2017-09-23T02:07:55.082Z,930.44
2017-09-23T02:08:09.138Z,930.45
2017-09-23T02:08:23.187Z,930.42
2017-09-23T02:08:35.523Z,930.45
2017-09-23T02:08:48.385Z,930.45
2017-09-23T02:09:02.901Z,930.44
2017-09-23T02:09:16.416Z,930.43
2017-09-23T02:09:30.778Z,930.41
2017-09-23T02:09:43.673Z,930.41
2017-09-23T02:09:57.684Z,930.42
2017-09-23T02:10:11.884Z,930.42
2017-09-23T02:10:25.364Z,930.44
2017-09-23T02:10:38.999Z,930.41
2017-09-23T02:10:52.639Z,930.44
2017-09-23T02:11:05.447Z,930.41
2017-09-23T02:11:19.110Z,930.42
2017-09-23T02:11:32.687Z,930.41
2017-09-23T02:11:47.311Z,930.41
2017-09-23T02:12:00.911Z,930.41
2017-09-23T02:12:14.841Z,930.4
2017-09-23T02:12:28.001Z,930.37
2017-09-23T02:12:42.058Z,930.37
2017-09-23T02:12:55.787Z,930.4
2017-09-23T02:13:09.259Z,930.38
2017-09-23T02:13:23.321Z,930.38
2017-09-23T02:13:36.801Z,930.37
2017-09-23T02:13:50.922Z,930.39
2017-09-23T02:14:04.932Z,930.43
2017-09-23T02:14:18.475Z,930.4
2017-09-23T02:14:32.567Z,930.42
2017-09-23T02:14:46.648Z,930.42
2017-09-23T02:14:59.663Z,930.38
2017-09-23T02:15:13.258Z,930.41
2017-09-23T02:15:26.639Z,930.37
2017-09-23T02:15:40.673Z,930.38
2017-09-23T02:15:54.681Z,930.4
2017-09-23T02:16:08.065Z,930.39
2017-09-23T02:16:20.408Z,930.38
2017-09-23T02:16:34.390Z,930.39
2017-09-23T02:16:48.350Z,930.39
2017-09-23T02:17:01.802Z,930.37
2017-09-23T02:17:15.863Z,930.4
2017-09-23T02:17:29.315Z,930.43
2017-09-23T02:17:42.755Z,930.39
2017-09-23T02:17:56.150Z,930.43
2017-09-23T02:18:09.753Z,930.45
2017-09-23T02:18:23.970Z,930.44
2017-09-23T02:18:37.958Z,930.43
2017-09-23T02:18:50.810Z,930.42
2017-09-23T02:19:04.239Z,930.44
2017-09-23T02:19:18.245Z,930.47
2017-09-23T02:19:32.259Z,930.46
2017-09-23T02:19:45.756Z,930.48
2017-09-23T02:19:58.737Z,930.44
2017-09-23T02:20:11.352Z,930.45
2017-09-23T02:20:25.441Z,930.45
2017-09-23T02:20:39.521Z,930.47
2017-09-23T02:20:52.979Z,930.48
2017-09-23T02:21:06.617Z,930.46
2017-09-23T02:21:19.470Z,930.46
2017-09-23T02:21:34.145Z,930.46
2017-09-23T02:21:48.060Z,930.44
2017-09-23T02:22:01.474Z,930.46
2017-09-23T02:22:14.916Z,930.46
2017-09-23T02:22:29.057Z,930.44
2017-09-23T02:22:42.526Z,930.45
2017-09-23T02:22:55.335Z,930.46
2017-09-23T02:23:08.130Z,930.46
2017-09-23T02:23:21.616Z,930.44
2017-09-23T02:23:35.102Z,930.45
2017-09-23T02:23:47.424Z,930.47
2017-09-23T02:24:00.910Z,930.46
2017-09-23T02:24:14.310Z,930.48
2017-09-23T02:24:27.747Z,930.5
2017-09-23T02:24:39.486Z,930.5
2017-09-23T02:24:52.330Z,930.52
2017-09-23T02:25:04.673Z,930.45
2017-09-23T02:25:18.721Z,930.46
2017-09-23T02:25:32.739Z,930.44
2017-09-23T02:25:46.699Z,930.48
2017-09-23T02:26:00.728Z,930.5
2017-09-23T02:26:13.499Z,930.5
2017-09-23T02:26:26.928Z,930.45
2017-09-23T02:26:40.898Z,930.43
2017-09-23T02:26:54.876Z,930.43
2017-09-23T02:27:08.342Z,930.45
2017-09-23T02:27:22.322Z,930.46
2017-09-23T02:27:36.334Z,930.46
2017-09-23T02:27:48.539Z,930.46
2017-09-23T02:28:02.549Z,930.47
2017-09-23T02:28:16.580Z,930.44
2017-09-23T02:28:29.967Z,930.45
2017-09-23T02:28:42.856Z,930.45
2017-09-23T02:28:56.895Z,930.47
2017-09-23T02:29:09.781Z,930.44
2017-09-23T02:29:23.423Z,930.43
2017-09-23T02:29:37.352Z,930.4
2017-09-23T02:29:50.789Z,930.4
2017-09-23T02:30:04.703Z,930.44
2017-09-23T02:30:18.100Z,930.43
2017-09-23T02:30:31.330Z,930.42
2017-09-23T02:30:45.323Z,930.39
2017-09-23T02:30:58.805Z,930.41
2017-09-23T02:31:12.793Z,930.43
2017-09-23T02:31:26.739Z,930.39
2017-09-23T02:31:40.715Z,930.42
2017-09-23T02:31:54.427Z,930.4
2017-09-23T02:32:08.309Z,930.42
2017-09-23T02:32:22.290Z,930.37
2017-09-23T02:32:35.126Z,930.35
2017-09-23T02:32:49.049Z,930.33
2017-09-23T02:33:03.015Z,930.33
2017-09-23T02:33:16.359Z,930.38
2017-09-23T02:33:30.309Z,930.38
2017-09-23T02:33:44.290Z,930.36
2017-09-23T02:33:58.243Z,930.41
2017-09-23T02:34:12.182Z,930.36
2017-09-23T02:34:25.583Z,930.41
2017-09-23T02:34:39.576Z,930.41
2017-09-23T02:34:52.896Z,930.37
2017-09-23T02:35:06.238Z,930.37
2017-09-23T02:35:20.206Z,930.33
2017-09-23T02:35:33.552Z,930.35
2017-09-23T02:35:46.358Z,930.34
2017-09-23T02:35:58.600Z,930.32
2017-09-23T02:36:12.570Z,930.35
2017-09-23T02:36:25.937Z,930.37
2017-09-23T02:36:39.947Z,930.35
2017-09-23T02:36:52.727Z,930.37
2017-09-23T02:37:06.615Z,930.36
2017-09-23T02:37:20.532Z,930.39
2017-09-23T02:37:34.456Z,930.36
2017-09-23T02:37:47.181Z,930.34
2017-09-23T02:38:01.095Z,930.38
2017-09-23T02:38:14.437Z,930.43
2017-09-23T02:38:28.028Z,930.4
2017-09-23T02:38:42.037Z,930.38
2017-09-23T02:38:54.239Z,930.41
2017-09-23T02:39:08.335Z,930.4
2017-09-23T02:39:21.809Z,930.39
2017-09-23T02:39:35.221Z,930.4
2017-09-23T02:39:49.182Z,930.4
2017-09-23T02:40:02.595Z,930.38
2017-09-23T02:40:16.007Z,930.38
2017-09-23T02:40:29.731Z,930.37
2017-09-23T02:40:43.586Z,930.39
2017-09-23T02:40:58.258Z,930.39
2017-09-23T02:41:12.233Z,930.39
2017-09-23T02:41:25.635Z,930.36
2017-09-23T02:41:39.554Z,930.39
2017-09-23T02:41:52.914Z,930.4
2017-09-23T02:42:06.206Z,930.39
2017-09-23T02:42:19.535Z,930.39
2017-09-23T02:42:33.381Z,930.4
2017-09-23T02:42:46.807Z,930.38
2017-09-23T02:42:59.748Z,930.36
2017-09-23T02:43:12.683Z,930.37
2017-09-23T02:43:26.622Z,930.39
2017-09-23T02:43:38.875Z,930.37
2017-09-23T02:43:52.731Z,930.35
2017-09-23T02:44:06.713Z,930.4
2017-09-23T02:44:20.399Z,930.36
2017-09-23T02:44:33.342Z,930.34
2017-09-23T02:44:46.193Z,930.37
2017-09-23T02:44:58.892Z,930.35
2017-09-23T02:45:12.285Z,930.35
2017-09-23T02:45:25.236Z,930.34
2017-09-23T02:45:39.392Z,930.33
2017-09-23T02:45:52.097Z,930.31
2017-09-23T02:46:05.528Z,930.32
2017-09-23T02:46:18.774Z,930.29
2017-09-23T02:46:31.561Z,930.35
2017-09-23T02:46:45.549Z,930.33
2017-09-23T02:46:58.254Z,930.35
2017-09-23T02:47:12.411Z,930.32
2017-09-23T02:47:25.822Z,930.34
2017-09-23T02:47:38.501Z,930.3
2017-09-23T02:47:51.771Z,930.29
2017-09-23T02:48:05.854Z,930.27
2017-09-23T02:48:19.837Z,930.29
2017-09-23T02:48:33.090Z,930.25
2017-09-23T02:48:46.997Z,930.26
2017-09-23T02:49:00.996Z,930.28
2017-09-23T02:49:14.380Z,930.29
2017-09-23T02:49:28.253Z,930.29
2017-09-23T02:49:41.379Z,930.28
2017-09-23T02:49:54.520Z,930.28
2017-09-23T02:50:07.007Z,930.25
2017-09-23T02:50:20.906Z,930.24
2017-09-23T02:50:34.596Z,930.25
2017-09-23T02:50:48.303Z,930.25
2017-09-23T02:51:00.937Z,930.25
2017-09-23T02:51:14.676Z,930.24
2017-09-23T02:51:28.328Z,930.21
2017-09-23T02:51:41.954Z,930.23